This is the latest recevied weather packets stored in our database for station/object KD8OUK. If no packets are shown the sender has not sent any weather packets the latest 1 day(s).
| Time | Temp. | Humidity | Pressure | Rain* | Wind** | Luminosity | Snow |
|---|---|---|---|---|---|---|---|
| 1778057417 | 5.56° C | 99% | 1008.6 hPa | 1.02 mm | - | - | - |
| 1778056223 | 5.56° C | 99% | 1009.1 hPa | 0.76 mm | - | - | - |
| 1778055932 | 5.56° C | 99% | 1009 hPa | 0.76 mm | - | - | - |
| 1778055624 | 5.56° C | 99% | 1008.9 hPa | 0.51 mm | - | - | - |
| 1778055316 | 5.56° C | 99% | 1009 hPa | 0.51 mm | - | - | - |
| 1778053831 | 5.56° C | 99% | 1008.9 hPa | 0.51 mm | - | - | - |
| 1778053523 | 6.11° C | 99% | 1008.8 hPa | 0.76 mm | - | - | - |
| 1778053233 | 6.11° C | 99% | 1008.8 hPa | 1.27 mm | - | - | - |
| 1778052617 | 6.11° C | 99% | 1008.6 hPa | 2.54 mm | - | - | - |
| 1778052327 | 6.11° C | 99% | 1008.7 hPa | 3.3 mm | - | - | - |
| 1778052019 | 6.11° C | 99% | 1008.8 hPa | 3.56 mm | - | - | - |
| 1778051730 | 6.11° C | 99% | 1008.8 hPa | 3.81 mm | - | - | - |
| 1778051126 | 6.11° C | 99% | 1008.9 hPa | 3.81 mm | - | - | - |
| 1778050824 | 6.11° C | 99% | 1009 hPa | 4.32 mm | - | - | - |
| 1778050516 | 6.11° C | 99% | 1009 hPa | 4.57 mm | - | - | - |
| 1778049618 | 6.11° C | 99% | 1009.1 hPa | 4.83 mm | - | - | - |
| 1778048126 | 6.11° C | 99% | 1009 hPa | 6.1 mm | - | - | - |
| 1778047818 | 6.11° C | 99% | 1008.7 hPa | 6.6 mm | - | - | - |
| 1778047529 | 6.11° C | 99% | 1008.7 hPa | 7.11 mm | - | - | - |
| 1778044824 | 6.67° C | 99% | 1009.5 hPa | 5.59 mm | - | - | - |
| 1778044226 | 6.67° C | 99% | 1009.1 hPa | 5.84 mm | - | - | - |
| 1778043918 | 6.67° C | 99% | 1009.1 hPa | 5.33 mm | - | - | - |
| 1778043628 | 6.67° C | 99% | 1008.9 hPa | 5.33 mm | - | - | - |
| 1778043031 | 6.67° C | 99% | 1008.9 hPa | 5.33 mm | - | - | - |
| 1778042723 | 6.67° C | 99% | 1009 hPa | 5.33 mm | - | - | - |
* Rain latest hour (hover to see other rain measurements)
** Current wind speed in m/s (hover to see current wind gust speed)